Time;durP1;ratioP1;P1;durP2;ratioP2;P2;SDS_P1;SDS_P2;PMS_P1;PMS_P2;Temp;Humidity;BMP_temperature;BMP_pressure;BME280_temperature;BME280_humidity;BME280_pressure;Samples;Min_cycle;Max_cycle;Signal;HPM_P1;HPM_P2
2023/09/21 00:01:05;;;;;;;7.93;1.60;;;16.10;99.90;;;;;;5034386;28;20175;-84
2023/09/21 00:03:32;;;;;;;2.63;1.20;;;16.00;99.90;;;;;;5034459;28;20204;-85
2023/09/21 00:05:58;;;;;;;5.45;1.40;;;16.00;99.90;;;;;;5034286;28;20174;-84
2023/09/21 00:08:24;;;;;;;3.85;1.67;;;15.90;99.90;;;;;;5032930;28;20229;-85
2023/09/21 00:10:51;;;;;;;5.88;1.60;;;16.00;99.90;;;;;;5033173;28;20187;-84
2023/09/21 00:13:17;;;;;;;3.40;1.50;;;16.00;99.90;;;;;;5032737;28;20171;-84
2023/09/21 00:15:44;;;;;;;2.33;1.60;;;16.00;99.90;;;;;;5034209;28;20186;-84
2023/09/21 00:18:10;;;;;;;3.47;1.60;;;15.90;99.90;;;;;;5032726;28;20617;-84
2023/09/21 00:20:48;;;;;;;1.95;1.55;;;16.00;99.90;;;;;;5033063;28;20190;-84
2023/09/21 00:23:15;;;;;;;5.03;1.63;;;16.10;99.90;;;;;;5034201;28;20467;-84
2023/09/21 00:25:41;;;;;;;2.78;1.35;;;16.10;99.90;;;;;;5034198;28;20177;-84
2023/09/21 00:28:07;;;;;;;3.42;1.70;;;16.10;99.90;;;;;;5031667;28;20226;-84
2023/09/21 00:30:35;;;;;;;3.55;1.55;;;16.10;99.90;;;;;;5033705;28;20635;-83
2023/09/21 00:33:02;;;;;;;6.35;1.75;;;16.10;99.90;;;;;;5034064;28;20305;-84
2023/09/21 00:35:29;;;;;;;2.65;1.60;;;16.10;99.90;;;;;;5032748;28;20236;-83
2023/09/21 00:37:57;;;;;;;2.75;1.35;;;16.20;99.90;;;;;;5033831;28;20617;-85
2023/09/21 00:40:23;;;;;;;2.72;1.50;;;16.10;99.90;;;;;;5033749;28;20210;-83
2023/09/21 00:42:51;;;;;;;4.70;1.58;;;16.10;99.90;;;;;;5033654;28;20533;-83
2023/09/21 00:45:18;;;;;;;2.58;1.60;;;16.10;99.90;;;;;;5032347;28;20696;-84
2023/09/21 00:47:54;;;;;;;2.17;1.33;;;16.10;99.90;;;;;;5032372;28;20175;-84
2023/09/21 00:50:22;;;;;;;3.10;1.50;;;16.10;99.90;;;;;;5032656;28;20564;-84
2023/09/21 00:52:53;;;;;;;1.98;1.58;;;16.10;99.90;;;;;;5032612;28;20628;-84
2023/09/21 00:55:30;;;;;;;1.85;1.40;;;16.00;99.90;;;;;;5033681;28;20174;-84
2023/09/21 00:58:00;;;;;;;2.75;1.70;;;16.00;99.90;;;;;;5032276;28;20519;-84
2023/09/21 01:00:27;;;;;;;2.63;1.50;;;15.90;99.90;;;;;;5032199;28;20214;-85
2023/09/21 01:02:54;;;;;;;4.05;1.67;;;15.90;99.90;;;;;;5032689;28;20554;-82
2023/09/21 01:05:21;;;;;;;3.22;1.67;;;15.90;99.90;;;;;;5032462;28;20182;-83
2023/09/21 01:07:48;;;;;;;3.38;1.60;;;15.80;99.90;;;;;;5033328;28;20206;-84
2023/09/21 01:10:15;;;;;;;2.38;1.60;;;15.90;99.90;;;;;;5032353;28;20194;-82
2023/09/21 01:12:44;;;;;;;2.22;1.58;;;15.90;99.90;;;;;;5032444;28;20181;-83
2023/09/21 01:15:10;;;;;;;2.70;1.42;;;15.90;99.90;;;;;;5032039;28;20186;-84
2023/09/21 01:17:44;;;;;;;2.78;1.67;;;15.90;99.90;;;;;;5033407;28;20253;-84
2023/09/21 01:20:32;;;;;;;3.95;1.60;;;15.90;99.90;;;;;;5032230;28;20209;-83
2023/09/21 01:23:17;;;;;;;2.17;1.52;;;15.90;99.90;;;;;;5033197;28;20213;-84
2023/09/21 01:25:45;;;;;;;2.58;1.45;;;15.80;99.90;;;;;;5033551;28;20174;-85
2023/09/21 01:28:16;;;;;;;4.70;1.80;;;15.70;99.90;;;;;;5031707;28;20269;-84
2023/09/21 01:30:43;;;;;;;2.25;1.52;;;15.60;99.90;;;;;;5032109;28;20236;-84
2023/09/21 01:33:11;;;;;;;2.20;1.50;;;15.60;99.90;;;;;;5033291;28;20159;-85
2023/09/21 01:35:40;;;;;;;3.55;1.63;;;15.50;99.90;;;;;;5032150;28;20676;-84
2023/09/21 01:38:06;;;;;;;2.20;1.55;;;15.60;99.90;;;;;;5032299;28;20182;-83
2023/09/21 01:40:36;;;;;;;3.13;1.65;;;15.60;99.90;;;;;;5037084;28;20221;-85
2023/09/21 01:43:10;;;;;;;4.55;1.50;;;15.60;99.90;;;;;;5036919;28;20163;-84
2023/09/21 01:45:39;;;;;;;1.98;1.52;;;15.60;99.90;;;;;;5029088;28;20180;-84
2023/09/21 01:48:09;;;;;;;4.15;1.85;;;15.60;99.90;;;;;;5014155;28;20175;-84
2023/09/21 01:50:45;;;;;;;4.45;1.88;;;15.60;99.90;;;;;;5014237;28;20229;-84
2023/09/21 01:53:11;;;;;;;4.10;1.80;;;15.50;99.90;;;;;;5014687;28;20216;-84
2023/09/21 01:55:38;;;;;;;1.92;1.38;;;15.50;99.90;;;;;;5015562;28;20187;-84
2023/09/21 01:58:05;;;;;;;4.13;1.80;;;15.50;99.90;;;;;;5018273;28;20917;-84
2023/09/21 02:00:35;;;;;;;4.15;1.60;;;15.40;99.90;;;;;;5035120;28;20210;-84
2023/09/21 02:03:06;;;;;;;5.25;1.70;;;15.30;99.90;;;;;;5036899;28;20163;-85
2023/09/21 02:05:32;;;;;;;2.15;1.70;;;15.30;99.90;;;;;;5036734;28;20613;-85
2023/09/21 02:07:58;;;;;;;4.18;1.67;;;15.30;99.90;;;;;;5036387;28;20536;-85
2023/09/21 02:10:24;;;;;;;2.13;1.52;;;15.20;99.90;;;;;;5035634;28;20289;-84
2023/09/21 02:13:01;;;;;;;2.50;1.70;;;15.30;99.90;;;;;;5035345;28;20262;-85
2023/09/21 02:15:28;;;;;;;2.50;1.73;;;15.30;99.90;;;;;;5036442;28;20496;-85
2023/09/21 02:17:55;;;;;;;4.00;1.75;;;15.20;99.90;;;;;;5036424;28;20174;-86
2023/09/21 02:20:28;;;;;;;6.45;1.92;;;15.20;99.90;;;;;;5035067;28;20553;-84
2023/09/21 02:22:58;;;;;;;2.70;1.75;;;15.20;99.90;;;;;;5035025;28;20261;-85
2023/09/21 02:25:25;;;;;;;4.65;1.60;;;15.20;99.90;;;;;;5036403;28;20252;-85
2023/09/21 02:27:51;;;;;;;2.97;1.70;;;15.20;99.90;;;;;;5035862;28;20228;-84
2023/09/21 02:30:21;;;;;;;3.33;1.80;;;15.10;99.90;;;;;;5036127;28;20193;-85
2023/09/21 02:32:51;;;;;;;2.83;1.40;;;15.20;99.90;;;;;;5034976;28;20683;-84
2023/09/21 02:35:22;;;;;;;5.30;1.80;;;15.20;99.90;;;;;;5036108;28;20225;-85
2023/09/21 02:37:51;;;;;;;2.25;1.73;;;15.10;99.90;;;;;;5034790;28;20171;-85
2023/09/21 02:40:19;;;;;;;4.57;1.70;;;15.10;99.90;;;;;;5036026;28;20667;-84
2023/09/21 02:42:53;;;;;;;2.42;1.80;;;15.10;99.90;;;;;;5034857;28;20179;-83
2023/09/21 02:45:23;;;;;;;4.15;1.70;;;15.20;99.90;;;;;;5034503;28;20624;-85
2023/09/21 02:47:59;;;;;;;4.85;1.88;;;15.10;99.90;;;;;;5035647;28;20639;-84
2023/09/21 02:50:25;;;;;;;2.70;1.48;;;15.20;99.90;;;;;;5034087;28;20549;-84
2023/09/21 02:52:55;;;;;;;2.72;1.70;;;15.20;99.90;;;;;;5035896;28;20202;-84
2023/09/21 02:55:26;;;;;;;5.43;1.95;;;15.20;99.90;;;;;;5035805;28;20258;-84
2023/09/21 02:58:02;;;;;;;4.05;1.98;;;15.20;99.90;;;;;;5034148;28;20270;-84
2023/09/21 03:03:06;;;;;;;2.70;1.70;;;15.20;99.90;;;;;;5035587;28;20163;-84
2023/09/21 03:05:33;;;;;;;2.60;1.80;;;15.20;99.90;;;;;;5034426;28;20177;-85
2023/09/21 03:08:13;;;;;;;2.65;1.63;;;15.20;99.90;;;;;;5034129;28;20186;-85
2023/09/21 03:10:53;;;;;;;2.05;1.60;;;15.20;99.90;;;;;;5034248;28;20273;-85
2023/09/21 03:13:21;;;;;;;3.95;1.80;;;15.20;99.90;;;;;;5034121;28;20179;-84
2023/09/21 03:15:49;;;;;;;2.25;1.73;;;15.20;99.90;;;;;;5033888;28;20174;-85
2023/09/21 03:18:15;;;;;;;2.58;1.58;;;15.10;99.90;;;;;;5033937;28;20213;-85
2023/09/21 03:20:43;;;;;;;3.95;1.88;;;15.10;99.90;;;;;;5033969;28;20242;-84
2023/09/21 03:23:10;;;;;;;3.40;1.75;;;15.10;99.90;;;;;;5033882;28;20178;-85
2023/09/21 03:25:43;;;;;;;2.17;1.70;;;15.10;99.90;;;;;;5033880;28;20182;-84
2023/09/21 03:28:12;;;;;;;2.95;1.65;;;15.10;99.90;;;;;;5034764;28;20260;-84
2023/09/21 03:30:42;;;;;;;3.10;1.98;;;15.00;99.90;;;;;;5034796;28;20169;-84
2023/09/21 03:33:09;;;;;;;2.88;1.60;;;15.00;99.90;;;;;;5033747;28;20214;-84
2023/09/21 03:35:37;;;;;;;3.88;1.77;;;14.80;99.90;;;;;;5033785;28;20210;-84
2023/09/21 03:38:10;;;;;;;3.03;2.00;;;14.70;99.90;;;;;;5033431;28;20186;-84
2023/09/21 03:40:36;;;;;;;2.88;1.65;;;14.60;99.90;;;;;;5033752;28;20202;-85
2023/09/21 03:43:03;;;;;;;4.10;1.52;;;14.60;99.90;;;;;;5033614;28;20182;-84
2023/09/21 03:45:29;;;;;;;5.10;1.88;;;14.70;99.90;;;;;;5033480;28;20171;-85
2023/09/21 03:47:55;;;;;;;2.53;1.77;;;14.70;99.90;;;;;;5034562;28;20181;-85
2023/09/21 03:50:25;;;;;;;4.80;2.08;;;14.70;99.90;;;;;;5033308;28;20236;-85
2023/09/21 03:52:53;;;;;;;4.65;1.83;;;14.60;99.90;;;;;;5034732;28;20237;-84
2023/09/21 03:55:22;;;;;;;5.38;1.90;;;14.60;99.90;;;;;;5033462;28;20167;-85
2023/09/21 03:57:48;;;;;;;3.47;2.20;;;14.60;99.90;;;;;;5033156;28;20210;-85
2023/09/21 04:03:01;;;;;;;2.80;1.92;;;14.50;99.90;;;;;;5033518;28;20159;-84
2023/09/21 04:05:30;;;;;;;3.55;2.03;;;14.50;99.90;;;;;;5034497;28;20612;-85
2023/09/21 04:07:55;;;;;;;3.22;1.67;;;14.50;99.90;;;;;;5034390;28;20170;-84
2023/09/21 04:10:21;;;;;;;2.97;1.95;;;14.40;99.90;;;;;;5031414;28;20550;-84
2023/09/21 04:12:47;;;;;;;5.07;1.95;;;14.40;99.90;;;;;;5014588;28;20544;-85
2023/09/21 04:15:15;;;;;;;3.80;1.90;;;14.50;99.90;;;;;;5013123;28;20185;-85
2023/09/21 04:17:41;;;;;;;3.53;1.67;;;14.50;99.90;;;;;;5012993;28;20179;-85
2023/09/21 04:20:11;;;;;;;3.83;1.50;;;14.50;99.90;;;;;;5013271;28;20218;-85
2023/09/21 04:22:41;;;;;;;8.25;1.92;;;14.60;99.90;;;;;;5014525;28;20250;-85
2023/09/21 04:25:09;;;;;;;4.95;2.03;;;14.60;99.90;;;;;;5013185;28;20175;-85
2023/09/21 04:27:40;;;;;;;4.60;2.28;;;14.60;99.90;;;;;;5014140;28;20175;-85
2023/09/21 04:30:14;;;;;;;4.70;2.08;;;14.50;99.90;;;;;;5031781;28;20205;-84
2023/09/21 04:32:40;;;;;;;4.28;1.98;;;14.50;99.90;;;;;;5032728;28;20197;-85
2023/09/21 04:35:06;;;;;;;2.25;1.80;;;14.50;99.90;;;;;;5034142;28;20163;-85
2023/09/21 04:37:34;;;;;;;2.95;1.90;;;14.50;99.90;;;;;;5023433;28;20210;-85
2023/09/21 04:40:09;;;;;;;2.67;1.80;;;14.50;99.90;;;;;;5014128;28;20223;-84
2023/09/21 04:42:40;;;;;;;4.28;1.80;;;14.50;99.90;;;;;;5011504;28;20667;-85
2023/09/21 04:45:10;;;;;;;3.45;2.00;;;14.50;99.90;;;;;;5010660;28;20229;-84
2023/09/21 04:47:41;;;;;;;6.40;2.08;;;14.50;99.90;;;;;;5012820;28;20183;-85
2023/09/21 04:50:10;;;;;;;3.30;2.05;;;14.50;99.90;;;;;;5014205;28;20178;-85
2023/09/21 04:52:36;;;;;;;2.60;1.65;;;14.40;99.90;;;;;;5014021;28;20176;-84
2023/09/21 04:55:08;;;;;;;3.53;1.90;;;14.40;99.90;;;;;;5001773;28;20245;-85
2023/09/21 04:57:34;;;;;;;5.43;2.20;;;14.40;99.90;;;;;;4994280;28;20176;-85
2023/09/21 05:00:09;;;;;;;2.30;1.90;;;14.30;99.90;;;;;;5029044;28;20214;-84
2023/09/21 05:02:35;;;;;;;3.40;2.20;;;14.30;99.90;;;;;;5033732;28;20208;-85
2023/09/21 05:05:01;;;;;;;3.03;1.98;;;14.30;99.90;;;;;;5032396;28;20273;-86
2023/09/21 05:07:27;;;;;;;4.07;2.20;;;14.30;99.90;;;;;;5031563;28;20190;-85
2023/09/21 05:09:52;;;;;;;4.57;2.00;;;14.30;99.90;;;;;;5033815;28;20217;-86
2023/09/21 05:12:18;;;;;;;3.45;2.03;;;14.40;99.90;;;;;;5033751;28;20213;-86
2023/09/21 05:14:48;;;;;;;4.70;2.13;;;14.40;99.90;;;;;;5036494;28;20597;-86
2023/09/21 05:17:17;;;;;;;4.15;2.10;;;14.40;99.90;;;;;;5037505;28;20174;-85
2023/09/21 05:19:44;;;;;;;3.13;2.05;;;14.50;99.90;;;;;;5037352;28;20271;-85
2023/09/21 05:22:10;;;;;;;4.43;2.10;;;14.50;99.90;;;;;;5036594;28;20213;-85
2023/09/21 05:24:36;;;;;;;3.90;2.35;;;14.50;99.90;;;;;;5036129;28;20269;-85
2023/09/21 05:27:03;;;;;;;6.18;2.28;;;14.60;99.90;;;;;;5036075;28;20244;-85
2023/09/21 05:29:28;;;;;;;5.00;2.20;;;14.60;99.90;;;;;;5035662;28;20241;-84
2023/09/21 05:31:54;;;;;;;7.38;2.78;;;14.70;99.90;;;;;;5036032;28;20178;-85
2023/09/21 05:34:21;;;;;;;6.03;2.10;;;14.70;99.90;;;;;;5035895;28;20555;-84
2023/09/21 05:36:50;;;;;;;6.05;2.63;;;14.80;99.90;;;;;;5036037;28;20626;-85
2023/09/21 05:39:19;;;;;;;5.63;2.40;;;14.90;99.90;;;;;;5035230;28;20206;-84
2023/09/21 05:41:49;;;;;;;4.22;2.42;;;14.90;99.90;;;;;;5037235;28;20185;-85
2023/09/21 05:44:15;;;;;;;4.72;2.00;;;15.10;99.90;;;;;;5034696;28;20353;-85
2023/09/21 05:46:41;;;;;;;3.40;2.08;;;15.10;99.90;;;;;;5035267;28;20211;-85
2023/09/21 05:49:09;;;;;;;5.85;2.50;;;15.20;99.90;;;;;;5035774;28;20537;-85
2023/09/21 05:51:39;;;;;;;5.60;2.25;;;15.30;99.90;;;;;;5037552;28;20170;-85
2023/09/21 05:54:05;;;;;;;5.25;2.30;;;15.40;99.90;;;;;;5037040;28;20181;-85
2023/09/21 05:56:32;;;;;;;3.72;1.90;;;15.50;99.90;;;;;;5037043;28;20205;-86
2023/09/21 05:59:00;;;;;;;4.25;2.22;;;15.60;99.90;;;;;;5036252;28;20273;-85
2023/09/21 06:01:31;;;;;;;4.47;2.17;;;15.60;99.90;;;;;;5035278;28;20217;-84
2023/09/21 06:03:59;;;;;;;9.73;2.22;;;15.70;99.90;;;;;;5035624;28;20571;-85
2023/09/21 06:06:33;;;;;;;6.63;2.45;;;15.80;99.90;;;;;;5035352;28;20605;-84
2023/09/21 06:08:59;;;;;;;5.95;2.55;;;15.80;99.90;;;;;;5035664;28;20478;-84
2023/09/21 06:11:26;;;;;;;3.95;2.22;;;16.00;99.90;;;;;;5035369;28;20178;-83
2023/09/21 06:13:54;;;;;;;2.95;1.95;;;16.00;99.90;;;;;;5035207;28;20182;-84
2023/09/21 06:16:21;;;;;;;5.63;2.33;;;16.10;99.90;;;;;;5035369;28;20174;-83
2023/09/21 06:18:48;;;;;;;4.13;2.72;;;16.10;99.90;;;;;;5035059;28;20211;-84
2023/09/21 06:21:15;;;;;;;7.93;2.92;;;16.20;99.90;;;;;;5035205;28;20171;-86
2023/09/21 06:23:44;;;;;;;4.60;1.95;;;16.30;99.90;;;;;;5036451;28;20708;-85
2023/09/21 06:26:15;;;;;;;3.90;1.92;;;16.40;99.90;;;;;;5034067;28;20191;-85
2023/09/21 06:28:47;;;;;;;5.97;2.15;;;16.40;99.90;;;;;;5034676;28;20230;-83
2023/09/21 06:31:14;;;;;;;5.47;2.08;;;16.50;99.90;;;;;;5034843;28;20179;-86
2023/09/21 06:33:40;;;;;;;2.85;2.00;;;16.50;99.90;;;;;;5035086;28;20241;-84
2023/09/21 06:36:20;;;;;;;3.33;2.10;;;16.60;99.90;;;;;;5035026;28;20213;-83
2023/09/21 06:38:47;;;;;;;6.63;2.40;;;16.70;99.90;;;;;;5035874;28;20540;-86
2023/09/21 06:41:13;;;;;;;5.82;2.28;;;16.70;99.90;;;;;;5034636;28;20214;-84
2023/09/21 06:43:42;;;;;;;4.47;2.22;;;16.70;99.90;;;;;;5032021;28;20178;-86
2023/09/21 06:46:11;;;;;;;4.53;2.20;;;16.80;99.90;;;;;;5014355;28;20175;-85
2023/09/21 06:48:38;;;;;;;3.00;2.20;;;16.80;99.90;;;;;;5014570;28;20179;-85
2023/09/21 06:51:04;;;;;;;3.08;2.25;;;16.90;99.90;;;;;;5016158;28;20171;-85
2023/09/21 06:53:31;;;;;;;2.92;1.98;;;17.00;99.90;;;;;;5014633;28;20179;-83
2023/09/21 06:55:58;;;;;;;2.90;1.60;;;17.00;99.90;;;;;;5015819;28;20521;-84
2023/09/21 06:58:24;;;;;;;4.88;1.92;;;17.10;99.90;;;;;;5014285;28;20233;-84
2023/09/21 07:00:50;;;;;;;4.35;1.90;;;17.20;99.90;;;;;;5015556;28;20210;-84
2023/09/21 07:03:18;;;;;;;4.10;2.10;;;17.30;99.90;;;;;;5015018;28;20668;-84
2023/09/21 07:05:48;;;;;;;4.78;1.90;;;17.40;99.90;;;;;;5015573;28;20163;-85
2023/09/21 07:08:15;;;;;;;2.30;1.70;;;17.40;99.90;;;;;;5014338;28;20606;-84
2023/09/21 07:10:40;;;;;;;3.75;1.83;;;17.50;99.90;;;;;;5015527;28;20171;-83
2023/09/21 07:13:07;;;;;;;6.65;2.40;;;17.60;99.90;;;;;;5030785;28;20233;-84
2023/09/21 07:15:33;;;;;;;5.97;2.08;;;17.70;99.90;;;;;;5015333;28;20168;-85
2023/09/21 07:17:59;;;;;;;7.38;1.80;;;17.80;99.90;;;;;;5014171;28;20179;-83
2023/09/21 07:20:26;;;;;;;3.53;1.90;;;17.90;99.90;;;;;;5014037;28;20534;-85
2023/09/21 07:22:56;;;;;;;4.00;1.63;;;18.10;99.90;;;;;;5012596;28;20183;-84
2023/09/21 07:25:25;;;;;;;12.18;1.75;;;18.20;99.90;;;;;;5014217;28;20170;-83
2023/09/21 07:27:54;;;;;;;2.38;1.65;;;18.30;99.90;;;;;;4995343;28;20662;-86
2023/09/21 07:30:31;;;;;;;2.70;1.90;;;18.40;99.90;;;;;;5000022;28;20609;-85
2023/09/21 07:32:57;;;;;;;3.22;1.50;;;18.50;99.90;;;;;;5013905;28;20170;-84
2023/09/21 07:35:22;;;;;;;4.45;1.90;;;18.60;99.90;;;;;;5015364;28;20266;-84
2023/09/21 07:37:51;;;;;;;4.07;1.70;;;18.60;99.90;;;;;;5013805;28;20257;-84
2023/09/21 07:40:18;;;;;;;3.88;2.00;;;18.70;99.90;;;;;;5015149;28;20222;-86
2023/09/21 07:42:45;;;;;;;2.65;1.60;;;18.80;99.90;;;;;;5019801;28;20564;-85
2023/09/21 07:45:11;;;;;;;3.65;1.35;;;18.90;99.90;;;;;;5033704;28;20178;-85
2023/09/21 07:47:38;;;;;;;4.28;1.70;;;19.00;99.90;;;;;;5033293;28;20202;-84
2023/09/21 07:50:05;;;;;;;2.65;1.55;;;19.10;99.90;;;;;;5033078;28;20216;-84
2023/09/21 07:52:33;;;;;;;2.38;1.58;;;19.20;99.90;;;;;;5034502;28;20178;-85
2023/09/21 07:55:03;;;;;;;4.22;1.58;;;19.30;99.90;;;;;;5033323;28;20185;-83
2023/09/21 07:57:39;;;;;;;7.65;2.35;;;19.30;99.90;;;;;;5034617;28;20171;-86
2023/09/21 08:00:09;;;;;;;3.88;1.70;;;19.40;99.90;;;;;;5034828;28;20233;-84
2023/09/21 08:02:35;;;;;;;3.95;2.03;;;19.40;99.90;;;;;;5032567;28;20180;-87
2023/09/21 08:05:02;;;;;;;5.45;1.58;;;19.60;99.90;;;;;;5032974;28;20688;-85
2023/09/21 08:07:28;;;;;;;3.90;1.77;;;19.60;99.90;;;;;;5034381;28;20162;-86
2023/09/21 08:09:54;;;;;;;2.95;1.70;;;19.70;99.90;;;;;;5033074;28;20539;-85
2023/09/21 08:12:24;;;;;;;2.20;1.50;;;19.80;99.90;;;;;;5032843;28;20625;-83
2023/09/21 08:14:50;;;;;;;2.20;1.63;;;19.90;99.90;;;;;;5033041;28;20202;-82
2023/09/21 08:17:17;;;;;;;6.80;1.70;;;20.10;99.90;;;;;;5032687;28;20609;-85
2023/09/21 08:19:43;;;;;;;3.90;1.60;;;20.10;99.90;;;;;;5032829;28;20210;-83
2023/09/21 08:22:09;;;;;;;3.25;1.55;;;20.30;99.90;;;;;;5032920;28;20178;-84
2023/09/21 08:24:36;;;;;;;4.22;1.50;;;20.30;99.90;;;;;;5032919;28;20251;-84
2023/09/21 08:27:05;;;;;;;3.53;1.50;;;20.50;99.90;;;;;;5032788;28;20170;-84
2023/09/21 08:29:31;;;;;;;3.78;1.65;;;20.60;99.90;;;;;;5033870;28;20222;-86
2023/09/21 08:31:57;;;;;;;2.13;1.42;;;20.70;99.90;;;;;;5032630;28;20222;-87
2023/09/21 08:34:24;;;;;;;2.50;1.48;;;20.90;99.90;;;;;;5033027;28;20271;-88
2023/09/21 08:36:50;;;;;;;2.60;1.48;;;21.00;99.90;;;;;;5031811;28;20641;-84
2023/09/21 08:39:16;;;;;;;2.58;1.30;;;21.10;99.90;;;;;;5033666;28;20206;-86
2023/09/21 08:41:48;;;;;;;4.78;1.40;;;21.20;99.90;;;;;;5032755;28;20647;-85
2023/09/21 08:44:14;;;;;;;2.03;1.48;;;21.30;99.90;;;;;;5034141;28;20159;-86
2023/09/21 08:46:40;;;;;;;3.03;1.38;;;21.30;99.90;;;;;;5032317;28;20316;-87
2023/09/21 08:49:07;;;;;;;4.53;1.42;;;21.40;99.90;;;;;;5033388;28;20617;-86
2023/09/21 08:51:39;;;;;;;1.77;1.20;;;21.50;99.90;;;;;;5032680;28;20173;-86
2023/09/21 08:54:07;;;;;;;2.90;1.65;;;21.70;99.90;;;;;;5033423;28;20205;-87
2023/09/21 08:56:33;;;;;;;5.97;1.55;;;21.90;99.90;;;;;;5033770;28;20515;-86
2023/09/21 08:59:01;;;;;;;8.85;1.80;;;22.00;99.90;;;;;;5032345;28;20195;-86
2023/09/21 09:01:27;;;;;;;2.72;1.63;;;22.10;99.90;;;;;;5032323;28;20281;-84
2023/09/21 09:03:58;;;;;;;2.15;1.20;;;22.00;99.90;;;;;;5033693;28;20253;-84
2023/09/21 09:06:24;;;;;;;5.53;1.60;;;22.00;99.90;;;;;;5032315;28;20261;-84
2023/09/21 09:08:51;;;;;;;4.13;1.40;;;21.90;99.90;;;;;;5033216;28;20640;-85
2023/09/21 09:11:35;;;;;;;4.32;1.50;;;21.90;99.90;;;;;;5032407;28;20210;-86
2023/09/21 09:14:04;;;;;;;1.85;1.38;;;22.00;99.90;;;;;;5033051;28;20240;-83
2023/09/21 09:16:31;;;;;;;2.78;1.30;;;22.10;99.90;;;;;;5031850;28;20182;-85
2023/09/21 09:18:58;;;;;;;4.80;1.80;;;22.10;99.90;;;;;;5032394;28;20202;-85
2023/09/21 09:21:25;;;;;;;5.18;2.00;;;22.10;99.90;;;;;;5031858;28;20282;-85
2023/09/21 09:23:50;;;;;;;9.48;1.58;;;22.10;99.90;;;;;;5031832;28;20179;-87
2023/09/21 09:26:18;;;;;;;2.80;1.80;;;22.10;99.90;;;;;;5032319;28;20185;-85
2023/09/21 09:28:45;;;;;;;6.97;2.00;;;22.10;99.90;;;;;;5032143;28;20232;-86
2023/09/21 09:31:14;;;;;;;4.40;1.77;;;22.20;99.90;;;;;;5032292;28;20183;-86
2023/09/21 09:33:40;;;;;;;6.07;2.88;;;22.10;99.90;;;;;;5032145;28;20198;-84
2023/09/21 09:36:06;;;;;;;4.60;1.70;;;22.10;99.90;;;;;;5033320;28;20159;-83
2023/09/21 09:38:35;;;;;;;6.05;1.63;;;22.10;99.90;;;;;;5032929;28;20179;-83
2023/09/21 09:41:05;;;;;;;5.18;1.65;;;22.10;99.90;;;;;;5031355;28;20190;-84
2023/09/21 09:43:35;;;;;;;4.57;1.60;;;22.10;99.90;;;;;;5032152;28;20167;-84
2023/09/21 09:46:04;;;;;;;8.73;1.98;;;22.20;99.90;;;;;;5033346;28;20175;-82
2023/09/21 09:48:32;;;;;;;9.13;1.70;;;22.30;99.90;;;;;;5033138;28;20202;-83
2023/09/21 09:51:05;;;;;;;4.53;1.73;;;22.30;99.90;;;;;;5031942;28;20719;-84
2023/09/21 09:53:34;;;;;;;3.05;1.45;;;22.20;99.90;;;;;;5033117;28;20245;-84
2023/09/21 09:56:08;;;;;;;8.77;1.63;;;22.20;99.90;;;;;;5033283;28;20174;-84
2023/09/21 09:58:40;;;;;;;4.93;1.80;;;22.20;99.90;;;;;;5031799;28;20179;-85
2023/09/21 10:01:08;;;;;;;5.82;1.63;;;22.30;99.90;;;;;;5036249;28;20209;-84
2023/09/21 10:03:37;;;;;;;4.65;1.73;;;22.20;99.90;;;;;;5033151;28;20632;-85
2023/09/21 10:06:05;;;;;;;3.47;1.70;;;22.10;99.90;;;;;;5015244;28;20179;-84
2023/09/21 10:08:32;;;;;;;3.42;1.50;;;22.10;99.90;;;;;;5031410;28;20182;-85
2023/09/21 10:11:01;;;;;;;2.90;1.40;;;22.10;99.90;;;;;;5035057;28;20644;-84
2023/09/21 10:13:30;;;;;;;2.83;1.40;;;22.10;99.90;;;;;;5036020;28;20260;-84
2023/09/21 10:16:03;;;;;;;2.97;1.67;;;22.20;99.90;;;;;;5035281;28;20183;-84
2023/09/21 10:18:35;;;;;;;4.20;1.75;;;22.20;99.90;;;;;;5036493;28;20163;-84
2023/09/21 10:21:23;;;;;;;3.63;1.70;;;22.30;99.90;;;;;;5036533;28;20516;-83
2023/09/21 10:24:06;;;;;;;6.72;1.60;;;22.30;99.90;;;;;;5036084;28;20329;-84
2023/09/21 10:26:43;;;;;;;2.25;1.50;;;22.30;99.90;;;;;;5035095;28;20167;-84
2023/09/21 10:29:15;;;;;;;2.33;1.30;;;22.30;99.90;;;;;;5035676;28;20221;-83
2023/09/21 10:31:45;;;;;;;7.50;1.45;;;22.20;99.90;;;;;;5036160;28;20253;-86
2023/09/21 10:34:19;;;;;;;4.28;1.58;;;22.10;99.90;;;;;;5034878;28;20614;-84
2023/09/21 10:36:51;;;;;;;1.80;1.23;;;22.10;99.90;;;;;;5034715;28;20495;-86
2023/09/21 10:39:24;;;;;;;3.58;1.33;;;22.10;99.90;;;;;;5033965;28;20197;-86
2023/09/21 10:41:52;;;;;;;4.68;1.48;;;22.10;99.90;;;;;;5035008;28;20179;-87
2023/09/21 10:45:07;;;;;;;2.28;1.30;;;22.10;99.90;;;;;;5034820;28;20559;-85
2023/09/21 10:47:44;;;;;;;3.72;1.80;;;22.10;99.90;;;;;;5034868;28;20174;-87
2023/09/21 10:50:15;;;;;;;4.07;1.85;;;22.10;99.90;;;;;;5036273;28;20163;-86
2023/09/21 10:52:46;;;;;;;4.20;1.65;;;22.30;99.90;;;;;;5034632;28;20646;-86
2023/09/21 10:55:17;;;;;;;4.40;1.38;;;22.40;99.90;;;;;;5034546;28;20605;-90
2023/09/21 10:57:44;;;;;;;2.60;1.50;;;22.50;99.90;;;;;;5035598;28;20177;-90
2023/09/21 11:00:20;;;;;;;7.47;1.65;;;22.60;99.90;;;;;;5034870;28;20242;-87
2023/09/21 11:02:49;;;;;;;2.65;1.50;;;22.70;99.90;;;;;;5034780;28;20202;-87
2023/09/21 11:05:16;;;;;;;5.15;1.63;;;22.90;99.90;;;;;;5034428;28;20201;-86
2023/09/21 11:07:47;;;;;;;5.15;1.60;;;22.90;99.90;;;;;;5034078;28;20190;-88
2023/09/21 11:10:14;;;;;;;3.55;1.42;;;23.00;99.90;;;;;;5034879;28;20233;-86
2023/09/21 11:12:41;;;;;;;3.95;1.38;;;23.00;99.90;;;;;;5034115;28;20637;-88
2023/09/21 11:15:12;;;;;;;2.28;1.48;;;23.00;99.90;;;;;;5035744;28;20209;-87
2023/09/21 11:17:42;;;;;;;2.03;1.30;;;23.00;99.90;;;;;;5035200;28;20162;-86
2023/09/21 11:20:12;;;;;;;5.70;1.63;;;23.00;99.90;;;;;;5034058;28;20217;-89
2023/09/21 11:22:39;;;;;;;2.38;1.75;;;23.00;99.90;;;;;;5033851;28;20274;-88
2023/09/21 11:25:06;;;;;;;4.97;1.50;;;22.90;99.90;;;;;;5034421;28;20217;-89
2023/09/21 11:27:33;;;;;;;3.28;1.30;;;22.90;99.90;;;;;;5034248;28;20177;-92
2023/09/21 11:29:59;;;;;;;4.85;1.50;;;22.80;99.90;;;;;;5033687;28;20222;-87
2023/09/21 11:32:27;;;;;;;2.83;1.40;;;22.70;99.90;;;;;;5034145;28;20492;-87
2023/09/21 11:35:02;;;;;;;5.93;1.90;;;22.70;99.90;;;;;;5034308;28;20244;-86
2023/09/21 11:37:28;;;;;;;4.30;1.60;;;22.60;99.90;;;;;;5034082;28;20197;-89
2023/09/21 11:39:55;;;;;;;3.55;1.40;;;22.60;99.90;;;;;;5035140;28;20332;-89
2023/09/21 11:42:20;;;;;;;2.30;1.20;;;22.60;99.90;;;;;;5034511;28;20562;-86
2023/09/21 11:44:50;;;;;;;3.22;1.60;;;22.60;99.90;;;;;;5035481;28;20174;-89
2023/09/21 11:47:16;;;;;;;2.53;1.10;;;22.60;99.90;;;;;;5035318;28;20166;-94
2023/09/21 11:49:43;;;;;;;6.55;1.40;;;22.60;99.90;;;;;;5034023;28;20632;-89
2023/09/21 11:52:13;;;;;;;2.13;1.40;;;22.60;99.90;;;;;;5035076;28;20170;-89
2023/09/21 11:54:39;;;;;;;3.00;1.55;;;22.60;99.90;;;;;;5033889;28;20178;-87
2023/09/21 11:57:07;;;;;;;4.43;1.40;;;22.50;99.90;;;;;;5034225;28;20643;-91
2023/09/21 11:59:39;;;;;;;4.60;1.50;;;22.50;99.90;;;;;;5032510;28;20202;-89
2023/09/21 12:02:09;;;;;;;7.28;3.78;;;22.50;99.90;;;;;;5033742;28;20174;-88
2023/09/21 12:04:38;;;;;;;3.58;1.38;;;22.40;99.90;;;;;;5034896;28;20177;-89
2023/09/21 12:07:05;;;;;;;7.60;1.63;;;22.40;99.90;;;;;;5033770;28;20179;-87
2023/09/21 12:09:36;;;;;;;3.25;1.15;;;22.40;99.90;;;;;;5034481;28;20498;-88
2023/09/21 12:12:08;;;;;;;3.75;1.38;;;22.40;99.90;;;;;;5033457;28;20179;-87
2023/09/21 12:14:38;;;;;;;6.35;1.20;;;22.40;99.90;;;;;;5033581;28;20188;-89
2023/09/21 12:17:09;;;;;;;5.30;1.30;;;22.30;99.90;;;;;;5033453;28;20269;-89
2023/09/21 12:19:36;;;;;;;2.67;1.20;;;22.30;99.90;;;;;;5033448;28;20221;-87
2023/09/21 12:22:04;;;;;;;4.43;1.50;;;22.20;99.90;;;;;;5033506;28;20280;-88
2023/09/21 12:24:31;;;;;;;4.18;1.55;;;22.10;99.90;;;;;;5032275;28;20194;-85
2023/09/21 12:26:58;;;;;;;2.97;1.50;;;22.10;99.90;;;;;;5034463;28;20226;-85
2023/09/21 12:29:24;;;;;;;2.15;1.23;;;22.00;99.90;;;;;;5030087;28;20230;-86
2023/09/21 12:31:50;;;;;;;6.68;1.42;;;22.00;99.90;;;;;;5013560;28;20194;-85
2023/09/21 12:34:16;;;;;;;2.08;1.40;;;22.00;99.90;;;;;;5012354;28;20190;-85
2023/09/21 12:36:42;;;;;;;3.28;2.03;;;22.00;99.90;;;;;;5014107;28;20278;-86
2023/09/21 12:39:09;;;;;;;2.42;1.50;;;22.00;99.90;;;;;;5012967;28;20203;-85
2023/09/21 12:41:38;;;;;;;6.70;2.03;;;21.90;99.90;;;;;;5013240;28;20215;-85
2023/09/21 12:44:06;;;;;;;4.85;1.73;;;21.70;99.90;;;;;;5013237;28;20175;-87
2023/09/21 12:46:32;;;;;;;2.95;1.77;;;21.60;99.90;;;;;;5014468;28;20178;-86
2023/09/21 12:48:58;;;;;;;3.85;1.40;;;21.50;99.90;;;;;;5013168;28;20266;-86
2023/09/21 12:51:24;;;;;;;2.33;1.50;;;21.50;99.90;;;;;;5030045;28;20687;-86
2023/09/21 12:53:50;;;;;;;4.15;1.60;;;21.40;99.90;;;;;;5032688;28;20183;-85
2023/09/21 12:56:16;;;;;;;3.60;1.88;;;21.30;99.90;;;;;;5032901;28;20236;-86
2023/09/21 12:58:42;;;;;;;3.35;2.13;;;21.30;99.90;;;;;;5033608;28;20158;-84
2023/09/21 13:01:08;;;;;;;4.60;1.73;;;21.20;99.90;;;;;;5034031;28;20268;-84